Time;durP1;ratioP1;P1;durP2;ratioP2;P2;SDS_P1;SDS_P2;PMS_P1;PMS_P2;Temp;Humidity;BMP_temperature;BMP_pressure;BME280_temperature;BME280_humidity;BME280_pressure;Samples;Min_cycle;Max_cycle;Signal;HPM_P1;HPM_P2
2023/01/18 00:01:09;;;;;;;12.35;3.35;;;;;;;;;;4983123;28;20045;-67
2023/01/18 00:03:37;;;;;;;9.48;3.00;;;;;;;;;;4983384;28;20034;-67
2023/01/18 00:06:04;;;;;;;13.95;3.10;;;;;;;;;;4983910;28;20031;-67
2023/01/18 00:08:32;;;;;;;10.57;3.45;;;;;;;;;;4983995;28;20087;-65
2023/01/18 00:11:02;;;;;;;11.00;3.60;;;;;;;;;;4980583;28;20183;-65
2023/01/18 00:13:29;;;;;;;12.55;3.05;;;;;;;;;;4983345;28;20426;-66
2023/01/18 00:16:01;;;;;;;8.43;3.50;;;;;;;;;;4980379;28;21759;-65
2023/01/18 00:18:28;;;;;;;9.07;3.30;;;;;;;;;;4980519;28;20490;-65
2023/01/18 00:20:54;;;;;;;10.73;3.30;;;;;;;;;;4982124;28;20057;-66
2023/01/18 00:23:21;;;;;;;8.55;3.10;;;;;;;;;;4982722;28;20056;-66
2023/01/18 00:25:48;;;;;;;9.15;3.25;;;;;;;;;;4996356;28;20502;-64
2023/01/18 00:28:14;;;;;;;12.45;3.80;;;;;;;;;;4979959;28;20030;-65
2023/01/18 00:30:41;;;;;;;10.73;3.50;;;;;;;;;;4977961;28;20034;-65
2023/01/18 00:33:09;;;;;;;9.68;3.83;;;;;;;;;;4979734;28;20027;-65
2023/01/18 00:35:35;;;;;;;6.97;3.17;;;;;;;;;;4979292;28;20905;-65
2023/01/18 00:38:02;;;;;;;11.00;3.47;;;;;;;;;;4981579;28;20031;-66
2023/01/18 00:40:29;;;;;;;11.50;3.72;;;;;;;;;;4979094;28;20041;-66
2023/01/18 00:45:42;;;;;;;10.98;3.70;;;;;;;;;;4977782;28;20734;-66
2023/01/18 00:48:08;;;;;;;7.50;3.25;;;;;;;;;;4979535;28;20043;-66
2023/01/18 00:50:35;;;;;;;20.13;3.85;;;;;;;;;;4978704;28;20034;-67
2023/01/18 00:53:02;;;;;;;9.38;3.83;;;;;;;;;;4979131;28;20038;-69
2023/01/18 00:55:28;;;;;;;11.77;3.47;;;;;;;;;;4993784;28;20792;-66
2023/01/18 00:57:55;;;;;;;9.98;3.28;;;;;;;;;;4993527;28;20719;-67
2023/01/18 01:00:23;;;;;;;11.32;3.72;;;;;;;;;;4978078;28;20950;-67
2023/01/18 01:02:50;;;;;;;8.77;3.60;;;;;;;;;;4978787;28;20049;-65
2023/01/18 01:08:15;;;;;;;13.02;4.05;;;;;;;;;;4979277;28;20052;-65
2023/01/18 01:10:43;;;;;;;7.68;3.42;;;;;;;;;;4978600;28;20185;-66
2023/01/18 01:26:55;;;;;;;9.75;4.38;;;;;;;;;;4978846;28;20053;-65
2023/01/18 01:29:22;;;;;;;13.60;4.50;;;;;;;;;;4978812;28;20047;-65
2023/01/18 01:31:49;;;;;;;11.43;4.47;;;;;;;;;;4978308;28;20356;-66
2023/01/18 01:34:15;;;;;;;17.05;5.05;;;;;;;;;;4979144;28;20042;-66
2023/01/18 01:36:42;;;;;;;13.80;5.03;;;;;;;;;;4992986;28;20046;-66
2023/01/18 01:39:09;;;;;;;13.95;5.07;;;;;;;;;;4978482;28;20096;-66
2023/01/18 01:41:36;;;;;;;14.73;4.32;;;;;;;;;;4977882;28;20038;-68
2023/01/18 01:44:32;;;;;;;14.27;4.35;;;;;;;;;;4983086;28;20109;-67
2023/01/18 01:46:59;;;;;;;16.67;4.97;;;;;;;;;;4981321;28;20129;-67
2023/01/18 01:49:27;;;;;;;16.98;5.93;;;;;;;;;;4980291;28;20042;-67
2023/01/18 01:51:58;;;;;;;17.05;6.22;;;;;;;;;;4981622;28;20570;-67
2023/01/18 01:54:26;;;;;;;18.95;6.93;;;;;;;;;;4980518;28;20387;-67
2023/01/18 01:56:56;;;;;;;19.70;7.32;;;;;;;;;;4979682;28;20047;-66
2023/01/18 01:59:23;;;;;;;22.83;7.50;;;;;;;;;;4976069;28;20153;-67
2023/01/18 02:01:50;;;;;;;16.95;7.47;;;;;;;;;;4980116;28;20057;-67
2023/01/18 02:04:16;;;;;;;19.13;7.15;;;;;;;;;;4980731;28;20069;-67
2023/01/18 02:06:43;;;;;;;18.08;7.13;;;;;;;;;;4980392;28;20046;-67
2023/01/18 02:09:13;;;;;;;21.30;7.32;;;;;;;;;;4978160;28;20626;-68
2023/01/18 02:11:40;;;;;;;18.95;6.60;;;;;;;;;;4979971;28;20506;-66
2023/01/18 02:14:10;;;;;;;16.85;6.85;;;;;;;;;;4993616;28;20799;-66
2023/01/18 02:16:40;;;;;;;16.10;5.70;;;;;;;;;;4982449;28;20072;-65
2023/01/18 02:19:27;;;;;;;15.27;5.80;;;;;;;;;;4981139;28;20038;-66
2023/01/18 02:22:20;;;;;;;14.70;5.55;;;;;;;;;;4970803;28;20038;-66
2023/01/18 02:25:11;;;;;;;15.10;4.75;;;;;;;;;;4964782;28;20044;-65
2023/01/18 02:27:42;;;;;;;12.73;5.43;;;;;;;;;;4979651;28;20515;-67
2023/01/18 02:30:27;;;;;;;13.23;5.10;;;;;;;;;;4979989;28;20042;-67
2023/01/18 02:32:53;;;;;;;15.25;5.82;;;;;;;;;;4980733;28;20177;-66
2023/01/18 02:35:29;;;;;;;14.30;4.75;;;;;;;;;;4981428;28;20035;-67
2023/01/18 02:38:02;;;;;;;17.27;5.28;;;;;;;;;;4987970;28;20042;-67
2023/01/18 02:40:38;;;;;;;17.15;5.68;;;;;;;;;;4986038;28;20165;-67
2023/01/18 02:46:53;;;;;;;16.65;5.63;;;;;;;;;;4982441;28;20056;-68
2023/01/18 02:48:50;;;;;;;18.85;5.68;;;;;;;;;;4982704;28;20112;-67
2023/01/18 02:51:16;;;;;;;10.32;5.25;;;;;;;;;;4994300;28;20097;-67
2023/01/18 02:53:44;;;;;;;15.60;5.32;;;;;;;;;;5007026;28;20046;-67
2023/01/18 02:56:16;;;;;;;14.15;5.22;;;;;;;;;;5002421;28;20035;-68
2023/01/18 02:58:58;;;;;;;18.38;5.68;;;;;;;;;;5008318;28;20045;-68
2023/01/18 03:01:30;;;;;;;13.23;4.90;;;;;;;;;;4989876;28;20039;-68
2023/01/18 03:03:59;;;;;;;16.33;5.03;;;;;;;;;;5006506;28;20117;-67
2023/01/18 03:06:28;;;;;;;14.38;5.35;;;;;;;;;;4988117;28;20111;-68
2023/01/18 03:08:56;;;;;;;13.77;5.22;;;;;;;;;;4984564;28;20045;-67
2023/01/18 03:11:34;;;;;;;19.80;8.73;;;;;;;;;;4998995;28;21664;-67
2023/01/18 03:14:19;;;;;;;21.73;8.18;;;;;;;;;;4983403;28;20062;-66
2023/01/18 03:16:59;;;;;;;15.88;6.20;;;;;;;;;;4977453;28;20038;-67
2023/01/18 03:20:07;;;;;;;20.02;7.00;;;;;;;;;;4976396;28;20077;-67
2023/01/18 03:25:33;;;;;;;16.05;6.18;;;;;;;;;;4978521;28;20038;-68
2023/01/18 03:33:44;;;;;;;21.67;5.78;;;;;;;;;;4978047;28;20046;-67
2023/01/18 03:36:20;;;;;;;11.88;5.05;;;;;;;;;;4978983;28;20031;-66
2023/01/18 03:38:48;;;;;;;11.38;4.88;;;;;;;;;;4979035;28;20435;-66
2023/01/18 03:41:16;;;;;;;9.88;4.90;;;;;;;;;;4977476;28;20486;-65
2023/01/18 03:43:44;;;;;;;16.13;5.35;;;;;;;;;;4979003;28;20031;-65
2023/01/18 03:46:11;;;;;;;16.42;5.53;;;;;;;;;;4977422;28;20548;-67
2023/01/18 03:48:38;;;;;;;13.43;4.95;;;;;;;;;;4976176;28;20163;-65
2023/01/18 03:51:24;;;;;;;14.82;5.38;;;;;;;;;;4977569;28;20399;-64
2023/01/18 03:54:00;;;;;;;12.05;4.70;;;;;;;;;;4977127;28;20049;-66
2023/01/18 03:56:43;;;;;;;15.35;5.78;;;;;;;;;;4977368;28;20039;-66
2023/01/18 03:59:09;;;;;;;11.85;5.40;;;;;;;;;;4976917;28;20579;-66
2023/01/18 04:01:36;;;;;;;23.58;5.95;;;;;;;;;;4981139;28;20097;-67
2023/01/18 04:04:03;;;;;;;13.68;5.75;;;;;;;;;;4995482;28;20069;-67
2023/01/18 04:06:32;;;;;;;14.50;5.75;;;;;;;;;;4979911;28;20606;-67
2023/01/18 04:08:58;;;;;;;17.55;6.18;;;;;;;;;;4980479;28;20047;-67
2023/01/18 04:11:25;;;;;;;18.45;6.47;;;;;;;;;;4979920;28;20058;-67
2023/01/18 04:13:52;;;;;;;14.43;6.38;;;;;;;;;;4982277;28;20145;-66
2023/01/18 04:16:18;;;;;;;14.98;5.80;;;;;;;;;;4978832;28;20050;-67
2023/01/18 04:18:45;;;;;;;13.43;5.55;;;;;;;;;;4980478;28;20479;-68
2023/01/18 04:21:15;;;;;;;17.10;5.32;;;;;;;;;;4979927;28;20049;-67
2023/01/18 04:23:41;;;;;;;11.50;5.05;;;;;;;;;;4979817;28;20042;-67
2023/01/18 04:26:10;;;;;;;13.13;5.20;;;;;;;;;;4980836;28;20043;-67
2023/01/18 04:28:37;;;;;;;14.15;5.30;;;;;;;;;;4970148;28;20042;-68
2023/01/18 04:31:03;;;;;;;14.18;5.45;;;;;;;;;;4981475;28;20500;-68
2023/01/18 04:33:30;;;;;;;13.30;5.15;;;;;;;;;;4994891;28;20038;-67
2023/01/18 04:35:57;;;;;;;12.55;4.93;;;;;;;;;;4980349;28;20058;-66
2023/01/18 04:38:24;;;;;;;13.98;5.20;;;;;;;;;;4980036;28;20085;-67
2023/01/18 04:40:50;;;;;;;13.10;4.70;;;;;;;;;;4983601;28;20547;-65
2023/01/18 04:43:17;;;;;;;10.30;4.13;;;;;;;;;;4982896;28;20069;-65
2023/01/18 04:45:51;;;;;;;11.55;5.25;;;;;;;;;;4978305;28;20046;-66
2023/01/18 04:48:18;;;;;;;15.13;4.60;;;;;;;;;;4973504;28;20057;-66
2023/01/18 04:50:47;;;;;;;13.02;4.43;;;;;;;;;;4979412;28;20077;-68
2023/01/18 04:53:14;;;;;;;18.67;5.13;;;;;;;;;;4975856;28;20270;-68
2023/01/18 04:55:40;;;;;;;13.13;4.32;;;;;;;;;;4979691;28;20046;-67
2023/01/18 04:58:07;;;;;;;9.65;4.53;;;;;;;;;;4983178;28;20157;-67
2023/01/18 05:00:34;;;;;;;12.00;3.85;;;;;;;;;;4982211;28;20043;-65
2023/01/18 05:03:00;;;;;;;11.73;4.07;;;;;;;;;;4980547;28;20076;-66
2023/01/18 05:05:27;;;;;;;10.63;4.32;;;;;;;;;;4978836;28;20169;-66
2023/01/18 05:07:54;;;;;;;13.57;4.13;;;;;;;;;;4980051;28;20131;-66
2023/01/18 05:10:20;;;;;;;10.27;3.83;;;;;;;;;;4979003;28;20062;-67
2023/01/18 05:12:47;;;;;;;12.88;4.28;;;;;;;;;;4978172;28;20502;-67
2023/01/18 05:15:14;;;;;;;14.30;3.97;;;;;;;;;;4987828;28;20045;-67
2023/01/18 05:17:41;;;;;;;9.45;3.78;;;;;;;;;;4995638;28;20046;-68
2023/01/18 05:20:08;;;;;;;7.15;3.03;;;;;;;;;;4997458;28;20073;-69
2023/01/18 05:22:36;;;;;;;14.48;3.92;;;;;;;;;;4989308;28;20042;-67
2023/01/18 05:25:03;;;;;;;7.80;3.38;;;;;;;;;;4998292;28;20069;-67
2023/01/18 05:27:29;;;;;;;13.50;4.18;;;;;;;;;;4996802;28;20053;-69
2023/01/18 05:29:56;;;;;;;11.77;4.05;;;;;;;;;;5012422;28;20841;-67
2023/01/18 05:32:23;;;;;;;10.85;4.10;;;;;;;;;;4997891;28;20045;-67
2023/01/18 05:34:49;;;;;;;12.07;4.05;;;;;;;;;;4995788;28;20629;-67
2023/01/18 05:37:16;;;;;;;13.63;3.72;;;;;;;;;;5011532;28;20095;-68
2023/01/18 05:39:43;;;;;;;9.35;3.67;;;;;;;;;;4996010;28;20125;-65
2023/01/18 05:42:10;;;;;;;10.82;3.90;;;;;;;;;;5012139;28;20046;-66
2023/01/18 05:44:36;;;;;;;12.48;3.85;;;;;;;;;;4996191;28;20120;-66
2023/01/18 05:47:03;;;;;;;12.38;4.32;;;;;;;;;;4997117;28;20737;-66
2023/01/18 05:49:31;;;;;;;9.50;4.40;;;;;;;;;;4995508;28;20038;-67
2023/01/18 05:51:57;;;;;;;9.98;3.92;;;;;;;;;;4996882;28;20061;-66
2023/01/18 05:54:24;;;;;;;16.17;4.78;;;;;;;;;;5013300;28;20131;-65
2023/01/18 05:56:51;;;;;;;14.10;4.22;;;;;;;;;;4997820;28;20042;-67
2023/01/18 05:59:18;;;;;;;9.82;4.22;;;;;;;;;;4996499;28;20038;-66
2023/01/18 06:01:44;;;;;;;21.92;4.25;;;;;;;;;;4997057;28;20042;-66
2023/01/18 06:04:11;;;;;;;13.25;3.70;;;;;;;;;;5001094;28;20042;-66
2023/01/18 06:06:38;;;;;;;11.80;4.20;;;;;;;;;;4996759;28;20085;-66
2023/01/18 06:09:05;;;;;;;7.55;3.33;;;;;;;;;;4996253;28;20030;-67
2023/01/18 06:11:31;;;;;;;8.80;3.78;;;;;;;;;;4996190;28;20047;-66
2023/01/18 06:13:58;;;;;;;8.75;3.85;;;;;;;;;;4997219;28;20061;-66
2023/01/18 06:16:25;;;;;;;8.73;3.55;;;;;;;;;;4995307;28;20191;-67
2023/01/18 06:18:51;;;;;;;8.40;3.58;;;;;;;;;;5010612;28;20038;-67
2023/01/18 06:21:18;;;;;;;8.00;3.28;;;;;;;;;;4995305;28;20136;-72
2023/01/18 06:23:44;;;;;;;16.80;3.58;;;;;;;;;;5010639;28;20041;-68
2023/01/18 06:26:11;;;;;;;11.93;3.90;;;;;;;;;;4995127;28;20057;-67
2023/01/18 06:28:38;;;;;;;9.55;3.25;;;;;;;;;;4993863;28;20046;-67
2023/01/18 06:31:07;;;;;;;12.40;3.58;;;;;;;;;;4995685;28;20658;-66
2023/01/18 06:33:34;;;;;;;11.07;3.75;;;;;;;;;;4995297;28;20042;-66
2023/01/18 06:36:00;;;;;;;9.18;3.17;;;;;;;;;;4996801;28;20054;-67
2023/01/18 06:38:28;;;;;;;10.38;3.53;;;;;;;;;;4991738;28;20046;-67
2023/01/18 06:40:55;;;;;;;6.97;2.83;;;;;;;;;;4995677;28;20060;-66
2023/01/18 06:43:22;;;;;;;6.80;2.80;;;;;;;;;;4999011;28;20164;-68
2023/01/18 06:45:52;;;;;;;5.82;2.83;;;;;;;;;;4995680;28;20046;-66
2023/01/18 06:48:19;;;;;;;11.35;3.40;;;;;;;;;;4992684;28;20057;-69
2023/01/18 06:50:45;;;;;;;12.05;2.97;;;;;;;;;;4995976;28;20095;-68
2023/01/18 06:53:12;;;;;;;7.35;3.13;;;;;;;;;;4988605;28;20522;-66
2023/01/18 06:55:38;;;;;;;9.00;2.40;;;;;;;;;;4999159;28;20538;-66
2023/01/18 06:58:25;;;;;;;5.75;2.40;;;;;;;;;;5010792;28;20045;-66
2023/01/18 07:00:56;;;;;;;6.28;2.63;;;;;;;;;;5013129;28;20045;-66
2023/01/18 07:03:23;;;;;;;10.27;3.03;;;;;;;;;;5012513;28;20156;-66
2023/01/18 07:05:49;;;;;;;9.05;2.47;;;;;;;;;;5013165;28;21040;-66
2023/01/18 07:08:19;;;;;;;5.13;2.33;;;;;;;;;;5011792;28;20051;-66
2023/01/18 07:10:46;;;;;;;5.57;2.58;;;;;;;;;;5011920;28;20045;-66
2023/01/18 07:13:13;;;;;;;8.75;2.33;;;;;;;;;;5014284;28;20045;-66
2023/01/18 07:15:40;;;;;;;5.90;2.08;;;;;;;;;;5012599;28;20048;-66
2023/01/18 07:18:06;;;;;;;5.88;2.50;;;;;;;;;;5012680;28;20434;-67
2023/01/18 07:20:33;;;;;;;9.48;2.60;;;;;;;;;;5004144;28;20108;-66
2023/01/18 07:23:01;;;;;;;5.38;2.00;;;;;;;;;;5014079;28;20052;-67
2023/01/18 07:25:28;;;;;;;6.20;2.13;;;;;;;;;;5011035;28;20038;-66
2023/01/18 07:27:56;;;;;;;7.45;2.80;;;;;;;;;;5014183;28;20087;-65
2023/01/18 07:30:23;;;;;;;14.15;2.90;;;;;;;;;;5011568;28;20033;-69
2023/01/18 07:32:51;;;;;;;9.88;3.08;;;;;;;;;;5013508;28;20096;-66
2023/01/18 07:35:20;;;;;;;6.57;2.38;;;;;;;;;;5011331;28;20039;-65
2023/01/18 07:37:48;;;;;;;5.80;2.45;;;;;;;;;;5000896;28;20778;-66
2023/01/18 07:40:15;;;;;;;7.03;2.42;;;;;;;;;;5004157;28;20042;-66
2023/01/18 07:42:41;;;;;;;6.88;2.40;;;;;;;;;;4998614;28;20675;-66
2023/01/18 07:45:09;;;;;;;5.75;2.50;;;;;;;;;;4998898;28;20403;-65
2023/01/18 07:47:38;;;;;;;7.22;2.15;;;;;;;;;;4998817;28;20053;-65
2023/01/18 07:50:04;;;;;;;12.15;2.58;;;;;;;;;;4998329;28;20042;-66
2023/01/18 07:52:31;;;;;;;8.88;2.45;;;;;;;;;;4999241;28;20380;-65
2023/01/18 07:54:57;;;;;;;8.88;2.60;;;;;;;;;;4999492;28;20049;-66
2023/01/18 07:57:24;;;;;;;5.95;2.10;;;;;;;;;;5000714;28;20112;-66
2023/01/18 07:59:51;;;;;;;8.60;2.38;;;;;;;;;;4999195;28;20125;-66
2023/01/18 08:02:18;;;;;;;7.93;2.58;;;;;;;;;;4998842;28;20105;-66
2023/01/18 08:04:48;;;;;;;6.38;1.88;;;;;;;;;;4996440;28;20130;-67
2023/01/18 08:07:16;;;;;;;9.07;1.95;;;;;;;;;;5007871;28;20066;-67
2023/01/18 08:09:43;;;;;;;5.05;1.83;;;;;;;;;;4997431;28;20053;-66
2023/01/18 08:12:16;;;;;;;6.25;1.67;;;;;;;;;;4999160;28;20045;-66
2023/01/18 08:14:43;;;;;;;6.35;1.77;;;;;;;;;;4998528;28;20061;-66
2023/01/18 08:17:10;;;;;;;5.10;2.38;;;;;;;;;;4991889;28;20050;-66
2023/01/18 08:19:36;;;;;;;11.15;2.40;;;;;;;;;;4996476;28;20872;-66
2023/01/18 08:22:03;;;;;;;16.77;2.17;;;;;;;;;;4998110;28;20045;-66
2023/01/18 08:24:30;;;;;;;4.25;1.95;;;;;;;;;;5013571;28;20038;-66
2023/01/18 08:26:56;;;;;;;5.63;2.30;;;;;;;;;;4998197;28;20073;-66
2023/01/18 08:29:23;;;;;;;5.82;1.70;;;;;;;;;;4997583;28;20073;-66
2023/01/18 08:31:54;;;;;;;9.57;2.08;;;;;;;;;;4998287;28;20494;-67
2023/01/18 08:34:20;;;;;;;6.93;2.08;;;;;;;;;;5004667;28;20099;-67
2023/01/18 08:36:47;;;;;;;6.20;2.28;;;;;;;;;;4991191;28;20093;-66
2023/01/18 08:39:14;;;;;;;4.32;1.65;;;;;;;;;;4997635;28;20041;-67
2023/01/18 08:41:40;;;;;;;8.02;1.63;;;;;;;;;;4997475;28;20430;-68
2023/01/18 08:44:07;;;;;;;6.53;1.42;;;;;;;;;;5012776;28;20034;-67
2023/01/18 08:46:35;;;;;;;6.88;1.77;;;;;;;;;;4996598;28;20057;-67
2023/01/18 08:49:04;;;;;;;7.22;1.90;;;;;;;;;;4998220;28;20037;-67
2023/01/18 08:51:31;;;;;;;6.97;1.95;;;;;;;;;;4997445;28;20045;-67
2023/01/18 08:53:58;;;;;;;8.02;1.85;;;;;;;;;;4997220;28;20425;-66
2023/01/18 08:56:25;;;;;;;4.85;1.55;;;;;;;;;;4997245;28;20470;-66
2023/01/18 08:58:52;;;;;;;8.18;1.83;;;;;;;;;;5000835;28;20407;-66
2023/01/18 09:01:18;;;;;;;4.72;1.90;;;;;;;;;;4997278;28;20076;-66
2023/01/18 09:03:47;;;;;;;5.70;1.70;;;;;;;;;;4986476;28;20126;-67
2023/01/18 09:06:15;;;;;;;3.78;1.38;;;;;;;;;;4993244;28;20041;-67
2023/01/18 09:08:42;;;;;;;5.97;1.45;;;;;;;;;;4995348;28;20093;-67
2023/01/18 09:11:10;;;;;;;3.47;1.33;;;;;;;;;;4989677;28;20029;-67
2023/01/18 09:13:40;;;;;;;7.00;1.80;;;;;;;;;;4996664;28;20045;-67
2023/01/18 09:16:08;;;;;;;5.40;1.80;;;;;;;;;;4995668;28;20128;-68
2023/01/18 09:18:34;;;;;;;4.80;1.88;;;;;;;;;;4996331;28;21787;-67
2023/01/18 09:21:08;;;;;;;4.07;1.30;;;;;;;;;;4997697;28;20490;-66
2023/01/18 09:23:38;;;;;;;8.30;1.40;;;;;;;;;;5012133;28;20104;-67
2023/01/18 09:26:11;;;;;;;6.35;1.70;;;;;;;;;;5012830;28;20100;-67
2023/01/18 09:28:38;;;;;;;4.88;1.50;;;;;;;;;;4996192;28;20061;-67
2023/01/18 09:31:09;;;;;;;5.03;1.30;;;;;;;;;;4994254;28;21803;-67
2023/01/18 09:33:36;;;;;;;5.88;1.70;;;;;;;;;;4997089;28;20040;-67
2023/01/18 09:36:04;;;;;;;4.25;1.23;;;;;;;;;;4997114;28;20046;-67
2023/01/18 09:38:32;;;;;;;7.30;1.80;;;;;;;;;;4994059;28;20132;-67
2023/01/18 09:41:00;;;;;;;4.40;1.60;;;;;;;;;;5011990;28;20034;-66
2023/01/18 09:43:27;;;;;;;5.90;1.70;;;;;;;;;;5011001;28;20157;-67
2023/01/18 09:45:54;;;;;;;4.07;1.60;;;;;;;;;;4990888;28;20049;-67
2023/01/18 09:48:32;;;;;;;2.92;1.35;;;;;;;;;;5010002;28;20136;-67
2023/01/18 09:51:01;;;;;;;3.88;1.48;;;;;;;;;;5011528;28;20044;-67
2023/01/18 09:53:30;;;;;;;3.08;1.23;;;;;;;;;;5008867;28;20057;-66
2023/01/18 09:56:01;;;;;;;8.05;1.50;;;;;;;;;;5010683;28;20539;-67
2023/01/18 09:58:27;;;;;;;2.92;1.10;;;;;;;;;;4994483;28;20049;-69
2023/01/18 10:00:56;;;;;;;3.33;1.10;;;;;;;;;;4988352;28;20059;-66
2023/01/18 10:03:26;;;;;;;2.97;0.90;;;;;;;;;;4995178;28;20064;-65
2023/01/18 10:06:07;;;;;;;4.13;1.08;;;;;;;;;;4996458;28;20042;-66
2023/01/18 10:08:39;;;;;;;2.53;0.95;;;;;;;;;;5010056;28;20042;-66
2023/01/18 10:11:11;;;;;;;2.92;0.90;;;;;;;;;;4995449;28;20033;-65
2023/01/18 10:13:59;;;;;;;3.67;1.20;;;;;;;;;;4995524;28;20039;-66
2023/01/18 10:16:25;;;;;;;2.50;1.00;;;;;;;;;;4994869;28;20038;-66
2023/01/18 10:18:56;;;;;;;2.72;1.08;;;;;;;;;;4995440;28;20045;-65
2023/01/18 10:21:22;;;;;;;2.90;1.00;;;;;;;;;;4993694;28;20030;-67
2023/01/18 10:23:56;;;;;;;2.80;0.93;;;;;;;;;;4995780;28;20130;-66
2023/01/18 10:26:28;;;;;;;3.42;0.73;;;;;;;;;;4994025;28;20403;-65
2023/01/18 10:29:07;;;;;;;2.05;0.70;;;;;;;;;;4994149;28;20052;-66
2023/01/18 10:31:37;;;;;;;3.28;0.93;;;;;;;;;;5007518;28;20057;-69
2023/01/18 10:34:04;;;;;;;2.60;0.80;;;;;;;;;;4995708;28;20447;-67
2023/01/18 10:36:33;;;;;;;2.78;1.10;;;;;;;;;;4994469;28;20081;-67
2023/01/18 10:39:04;;;;;;;1.63;0.63;;;;;;;;;;4995612;28;21844;-66
2023/01/18 10:41:34;;;;;;;3.05;0.68;;;;;;;;;;4994391;28;20108;-66
2023/01/18 10:44:22;;;;;;;2.50;0.93;;;;;;;;;;4996251;28;20128;-67
2023/01/18 10:46:49;;;;;;;2.25;0.73;;;;;;;;;;4989307;28;20045;-66
2023/01/18 10:49:36;;;;;;;1.95;0.80;;;;;;;;;;4998038;28;20056;-66
2023/01/18 10:52:19;;;;;;;2.15;0.65;;;;;;;;;;4997948;28;20057;-67
2023/01/18 10:54:50;;;;;;;1.90;0.63;;;;;;;;;;4996878;28;20061;-66
2023/01/18 10:57:21;;;;;;;2.95;0.60;;;;;;;;;;4999285;28;20044;-66
2023/01/18 10:59:51;;;;;;;4.25;1.33;;;;;;;;;;4996994;28;20037;-67
2023/01/18 11:02:26;;;;;;;1.25;0.57;;;;;;;;;;4998581;28;20037;-67
2023/01/18 11:04:55;;;;;;;2.33;0.60;;;;;;;;;;4997993;28;20037;-67
2023/01/18 11:07:26;;;;;;;2.63;0.85;;;;;;;;;;4999199;28;20810;-66
2023/01/18 11:09:54;;;;;;;2.05;0.77;;;;;;;;;;4976064;28;20081;-67
2023/01/18 11:12:42;;;;;;;3.22;0.68;;;;;;;;;;4991700;28;20041;-67
2023/01/18 11:15:14;;;;;;;2.42;0.80;;;;;;;;;;4997751;28;20396;-66
2023/01/18 11:17:44;;;;;;;3.08;1.02;;;;;;;;;;4993478;28;20066;-67
2023/01/18 11:20:16;;;;;;;2.47;0.60;;;;;;;;;;5010175;28;20045;-66
2023/01/18 11:22:54;;;;;;;3.92;0.73;;;;;;;;;;5009909;28;20061;-66
2023/01/18 11:25:21;;;;;;;3.00;0.85;;;;;;;;;;4993053;28;20917;-67
2023/01/18 11:27:48;;;;;;;5.32;1.02;;;;;;;;;;4998161;28;20061;-67
2023/01/18 11:30:22;;;;;;;5.95;1.08;;;;;;;;;;4993037;28;20364;-67
2023/01/18 11:32:50;;;;;;;3.10;1.10;;;;;;;;;;4997438;28;20042;-66
2023/01/18 11:35:36;;;;;;;1.63;0.80;;;;;;;;;;4994640;28;20394;-67
2023/01/18 11:38:05;;;;;;;2.60;0.90;;;;;;;;;;4992243;28;21286;-67
2023/01/18 11:40:32;;;;;;;2.28;0.70;;;;;;;;;;5007737;28;20065;-67
2023/01/18 11:43:21;;;;;;;2.70;0.70;;;;;;;;;;4987651;28;20060;-67
2023/01/18 11:45:52;;;;;;;4.25;1.00;;;;;;;;;;4995228;28;20076;-68
2023/01/18 11:48:26;;;;;;;1.67;0.60;;;;;;;;;;4992645;28;20042;-67
2023/01/18 11:50:59;;;;;;;1.45;0.55;;;;;;;;;;5009931;28;20042;-66
2023/01/18 11:53:42;;;;;;;1.17;0.50;;;;;;;;;;5010618;28;20184;-66
2023/01/18 11:56:27;;;;;;;1.98;0.50;;;;;;;;;;4994261;28;20033;-67
2023/01/18 11:58:54;;;;;;;2.08;0.70;;;;;;;;;;4974628;28;20045;-67
2023/01/18 12:01:26;;;;;;;2.05;0.73;;;;;;;;;;4974713;28;20499;-66
2023/01/18 12:03:52;;;;;;;1.55;0.80;;;;;;;;;;4975670;28;20042;-66
2023/01/18 12:06:28;;;;;;;1.35;0.57;;;;;;;;;;4975276;28;20474;-65
2023/01/18 12:09:13;;;;;;;1.40;0.50;;;;;;;;;;4990383;28;20042;-66
2023/01/18 12:12:01;;;;;;;2.03;0.60;;;;;;;;;;4972283;28;20049;-66
2023/01/18 12:14:38;;;;;;;2.08;0.70;;;;;;;;;;4990252;28;20047;-65
2023/01/18 12:17:16;;;;;;;1.55;0.55;;;;;;;;;;4974606;28;20053;-67
2023/01/18 12:19:52;;;;;;;2.05;0.65;;;;;;;;;;4974450;28;20058;-66
2023/01/18 12:22:31;;;;;;;1.77;0.80;;;;;;;;;;4976143;28;20046;-67
2023/01/18 12:25:04;;;;;;;2.22;0.77;;;;;;;;;;4980124;28;20037;-67
2023/01/18 12:27:34;;;;;;;2.20;0.70;;;;;;;;;;4977749;28;20054;-66
2023/01/18 12:30:06;;;;;;;3.75;1.45;;;;;;;;;;4977832;28;20038;-66
2023/01/18 12:32:47;;;;;;;3.03;0.90;;;;;;;;;;4977655;28;20042;-68
2023/01/18 12:35:22;;;;;;;2.70;1.10;;;;;;;;;;4978770;28;20049;-67
2023/01/18 12:38:06;;;;;;;4.03;1.02;;;;;;;;;;4975375;28;20034;-67
2023/01/18 12:40:46;;;;;;;5.68;0.80;;;;;;;;;;4992517;28;20042;-67
2023/01/18 12:43:31;;;;;;;4.05;0.98;;;;;;;;;;4975511;28;20569;-67
2023/01/18 12:46:30;;;;;;;1.58;0.60;;;;;;;;;;4969630;28;20478;-69
2023/01/18 12:49:00;;;;;;;5.65;0.70;;;;;;;;;;4967322;28;20684;-68
2023/01/18 12:51:29;;;;;;;2.60;0.95;;;;;;;;;;4966483;28;20034;-67
2023/01/18 12:53:55;;;;;;;2.15;0.80;;;;;;;;;;4968851;28;20853;-67
2023/01/18 12:56:43;;;;;;;2.22;0.80;;;;;;;;;;4968626;28;20039;-67
2023/01/18 12:59:22;;;;;;;3.88;1.08;;;;;;;;;;4969441;28;20042;-68
2023/01/18 13:01:54;;;;;;;1.80;0.60;;;;;;;;;;4968816;28;20045;-68
2023/01/18 13:04:26;;;;;;;1.83;0.70;;;;;;;;;;4967424;28;20031;-68
2023/01/18 13:06:55;;;;;;;2.30;0.73;;;;;;;;;;4969155;28;20050;-67
2023/01/18 13:09:24;;;;;;;2.60;1.00;;;;;;;;;;4968215;28;20119;-68
2023/01/18 13:11:51;;;;;;;2.88;0.93;;;;;;;;;;4968581;28;20042;-67
2023/01/18 13:14:21;;;;;;;3.10;1.00;;;;;;;;;;4967899;28;20045;-67
2023/01/18 13:16:57;;;;;;;2.88;1.13;;;;;;;;;;4968386;28;20054;-67
2023/01/18 13:19:28;;;;;;;3.10;0.88;;;;;;;;;;4968370;28;20145;-68
2023/01/18 13:22:10;;;;;;;2.40;0.93;;;;;;;;;;4956266;28;20076;-68
2023/01/18 13:24:39;;;;;;;11.50;4.88;;;;;;;;;;4987561;28;20041;-68
2023/01/18 13:27:14;;;;;;;6.45;1.92;;;;;;;;;;4996491;28;20156;-66
2023/01/18 13:29:42;;;;;;;5.85;2.03;;;;;;;;;;4993882;28;20683;-67
2023/01/18 13:32:23;;;;;;;4.13;1.35;;;;;;;;;;4996332;28;20487;-65
2023/01/18 13:35:10;;;;;;;5.20;1.95;;;;;;;;;;4976610;28;20065;-67
2023/01/18 13:37:40;;;;;;;3.78;1.60;;;;;;;;;;4968308;28;20053;-66
2023/01/18 13:40:19;;;;;;;7.20;1.00;;;;;;;;;;4992117;28;20042;-66
2023/01/18 13:42:45;;;;;;;5.13;1.33;;;;;;;;;;4976538;28;20042;-66
2023/01/18 13:45:14;;;;;;;3.15;0.98;;;;;;;;;;4976618;28;20047;-65
2023/01/18 13:47:44;;;;;;;2.33;0.70;;;;;;;;;;4969353;28;20134;-65
2023/01/18 13:50:35;;;;;;;1.75;0.68;;;;;;;;;;4991276;28;20053;-65
2023/01/18 13:53:15;;;;;;;1.63;0.70;;;;;;;;;;4995929;28;20899;-69
2023/01/18 13:55:53;;;;;;;2.63;0.90;;;;;;;;;;4995154;28;20049;-68
2023/01/18 13:58:30;;;;;;;4.63;1.30;;;;;;;;;;4993380;28;20072;-68
2023/01/18 14:00:58;;;;;;;2.25;0.77;;;;;;;;;;4996150;28;20034;-68
2023/01/18 14:03:30;;;;;;;2.47;1.05;;;;;;;;;;4996600;28;20041;-68
2023/01/18 14:05:57;;;;;;;2.42;0.80;;;;;;;;;;4996627;28;20046;-67
2023/01/18 14:08:33;;;;;;;10.82;4.20;;;;;;;;;;4993749;28;20133;-66
2023/01/18 14:11:08;;;;;;;7.95;1.95;;;;;;;;;;4994652;28;20038;-67
2023/01/18 14:13:47;;;;;;;4.13;1.45;;;;;;;;;;4996185;28;20046;-67
2023/01/18 14:16:17;;;;;;;4.10;1.60;;;;;;;;;;4996218;28;20057;-68
2023/01/18 14:18:52;;;;;;;2.45;0.85;;;;;;;;;;4994965;28;20056;-68
2023/01/18 14:21:25;;;;;;;4.55;1.20;;;;;;;;;;4996563;28;20771;-68
2023/01/18 14:24:18;;;;;;;2.17;0.80;;;;;;;;;;4996674;28;20132;-68
2023/01/18 14:26:46;;;;;;;3.00;0.80;;;;;;;;;;4993350;28;20096;-67
2023/01/18 14:29:17;;;;;;;5.45;0.90;;;;;;;;;;4986570;28;20403;-69
2023/01/18 14:31:46;;;;;;;2.33;0.93;;;;;;;;;;4995857;28;20042;-67
2023/01/18 14:34:31;;;;;;;4.07;1.13;;;;;;;;;;4996008;28;20049;-67
2023/01/18 14:36:58;;;;;;;3.33;0.82;;;;;;;;;;4996228;28;20045;-69
2023/01/18 14:39:27;;;;;;;5.18;1.60;;;;;;;;;;5010030;28;20084;-67
2023/01/18 14:41:57;;;;;;;2.50;0.90;;;;;;;;;;4995286;28;20033;-67
2023/01/18 14:44:25;;;;;;;8.32;1.90;;;;;;;;;;4993895;28;20529;-67
2023/01/18 14:46:57;;;;;;;3.88;1.63;;;;;;;;;;4991110;28;20066;-67
2023/01/18 14:49:42;;;;;;;5.07;1.80;;;;;;;;;;4998381;28;21818;-67
2023/01/18 14:52:12;;;;;;;6.85;1.80;;;;;;;;;;4995325;28;20111;-67
2023/01/18 14:54:39;;;;;;;5.32;1.60;;;;;;;;;;4995139;28;20065;-66
2023/01/18 14:57:07;;;;;;;6.30;1.75;;;;;;;;;;4995623;28;20034;-67
2023/01/18 14:59:34;;;;;;;8.18;1.60;;;;;;;;;;4994447;28;20487;-67
2023/01/18 15:02:02;;;;;;;6.82;1.52;;;;;;;;;;4994200;28;20041;-67
2023/01/18 15:04:34;;;;;;;10.00;1.45;;;;;;;;;;4993442;28;20041;-67
2023/01/18 15:07:03;;;;;;;4.38;1.30;;;;;;;;;;4994263;28;20042;-67
2023/01/18 15:09:34;;;;;;;4.78;1.52;;;;;;;;;;4993699;28;20042;-67
2023/01/18 15:12:02;;;;;;;4.47;1.58;;;;;;;;;;4994782;28;20495;-66
2023/01/18 15:14:33;;;;;;;2.75;1.00;;;;;;;;;;4992708;28;20050;-66
2023/01/18 15:17:01;;;;;;;6.90;1.77;;;;;;;;;;4973975;28;20039;-66
2023/01/18 15:19:38;;;;;;;6.25;2.03;;;;;;;;;;4974510;28;20928;-66
2023/01/18 15:22:06;;;;;;;4.95;1.20;;;;;;;;;;4975969;28;20415;-67
2023/01/18 15:24:40;;;;;;;3.75;1.27;;;;;;;;;;4974964;28;20038;-67
2023/01/18 15:27:11;;;;;;;3.90;1.30;;;;;;;;;;4974724;28;21681;-67
2023/01/18 15:29:38;;;;;;;6.10;2.38;;;;;;;;;;4973692;28;20122;-66